Terminal Aerodrome Forecast
Issued by NWS Central Illinois

Home | Current Version | Previous Version | Text Only | Print | Product List | Glossary On
Versions: 1 2 3 4 5 6 7 8 9 10 11 12 13 14 15 16 17 18 19 20
000
FTUS43 KILX 310527
TAFPIA
TAF
KPIA 310527Z 3106/0106 VRB03KT P6SM SKC
     FM310800 VRB03KT 4SM BR SKC
     FM311000 VRB03KT 1/2SM FG BKN002
     FM311500 19006KT P6SM BKN010
     FM311800 18006KT P6SM BKN025
     FM010100 19006KT P6SM FEW025=

USA.gov is the U.S. government's official web portal to all federal, state and local government web resources and services.